sensor_id;sensor_type;location;lat;lon;timestamp;pressure;altitude;pressure_sealevel;temperature;humidity
77737;BME280;66903;59.926;30.404;2023-04-01T00:04:39;100303.22;;;25.53;30.33
77737;BME280;66903;59.926;30.404;2023-04-01T00:10:05;100300.06;;;25.54;30.31
77737;BME280;66903;59.926;30.404;2023-04-01T00:15:12;100301.88;;;25.50;30.00
77737;BME280;66903;59.926;30.404;2023-04-01T00:20:13;100292.44;;;25.50;30.17
77737;BME280;66903;59.926;30.404;2023-04-01T00:25:14;100291.91;;;25.48;30.32
77737;BME280;66903;59.926;30.404;2023-04-01T00:30:15;100291.91;;;25.48;29.87
77737;BME280;66903;59.926;30.404;2023-04-01T00:35:16;100293.09;;;25.47;29.96
77737;BME280;66903;59.926;30.404;2023-04-01T00:40:30;100299.53;;;25.52;29.88
77737;BME280;66903;59.926;30.404;2023-04-01T00:51:06;100299.00;;;25.50;29.92
77737;BME280;66903;59.926;30.404;2023-04-01T00:56:13;100294.63;;;25.53;30.03
77737;BME280;66903;59.926;30.404;2023-04-01T01:01:14;100288.91;;;25.53;30.20
77737;BME280;66903;59.926;30.404;2023-04-01T01:06:51;100282.56;;;25.56;29.88
77737;BME280;66903;59.926;30.404;2023-04-01T01:12:39;100276.19;;;25.59;29.92
77737;BME280;66903;59.926;30.404;2023-04-01T01:23:21;100288.81;;;25.58;29.64
77737;BME280;66903;59.926;30.404;2023-04-01T01:38:56;100288.63;;;25.54;30.08
77737;BME280;66903;59.926;30.404;2023-04-01T01:43:59;100285.75;;;25.54;30.02
77737;BME280;66903;59.926;30.404;2023-04-01T01:49:03;100292.31;;;25.55;29.84
77737;BME280;66903;59.926;30.404;2023-04-01T01:54:05;100282.03;;;25.54;29.63
77737;BME280;66903;59.926;30.404;2023-04-01T01:59:08;100285.25;;;25.52;29.77
77737;BME280;66903;59.926;30.404;2023-04-01T02:04:13;100282.03;;;25.54;29.89
77737;BME280;66903;59.926;30.404;2023-04-01T02:09:15;100284.06;;;25.53;29.65
77737;BME280;66903;59.926;30.404;2023-04-01T02:14:21;100282.91;;;25.54;30.28
77737;BME280;66903;59.926;30.404;2023-04-01T02:19:29;100282.56;;;25.56;29.86
77737;BME280;66903;59.926;30.404;2023-04-01T02:24:32;100285.75;;;25.54;29.65
77737;BME280;66903;59.926;30.404;2023-04-01T02:29:33;100288.91;;;25.53;29.73
77737;BME280;66903;59.926;30.404;2023-04-01T02:34:34;100283.84;;;25.50;29.71
77737;BME280;66903;59.926;30.404;2023-04-01T02:39:35;100286.06;;;25.53;29.91
77737;BME280;66903;59.926;30.404;2023-04-01T02:44:35;100287.75;;;25.54;30.07
77737;BME280;66903;59.926;30.404;2023-04-01T02:49:36;100288.09;;;25.52;29.73
77737;BME280;66903;59.926;30.404;2023-04-01T02:54:36;100293.81;;;25.52;29.73
77737;BME280;66903;59.926;30.404;2023-04-01T02:59:36;100281.84;;;25.50;29.79
77737;BME280;66903;59.926;30.404;2023-04-01T03:04:37;100289.25;;;25.51;29.97
77737;BME280;66903;59.926;30.404;2023-04-01T03:09:41;100287.25;;;25.52;29.95
77737;BME280;66903;59.926;30.404;2023-04-01T03:14:41;100295.81;;;25.52;30.05
77737;BME280;66903;59.926;30.404;2023-04-01T03:19:42;100293.50;;;25.54;29.69
77737;BME280;66903;59.926;30.404;2023-04-01T03:24:42;100298.03;;;25.55;29.49
77737;BME280;66903;59.926;30.404;2023-04-01T03:29:42;100296.69;;;25.52;29.60
77737;BME280;66903;59.926;30.404;2023-04-01T03:34:43;100302.91;;;25.54;29.69
77737;BME280;66903;59.926;30.404;2023-04-01T03:39:44;100304.59;;;25.55;29.79
77737;BME280;66903;59.926;30.404;2023-04-01T03:44:45;100301.75;;;25.55;29.74
77737;BME280;66903;59.926;30.404;2023-04-01T03:49:46;100310.00;;;25.57;29.81
77737;BME280;66903;59.926;30.404;2023-04-01T03:54:52;100310.50;;;25.59;29.61
77737;BME280;66903;59.926;30.404;2023-04-01T04:00:26;100310.31;;;25.55;29.50
77737;BME280;66903;59.926;30.404;2023-04-01T04:06:10;100316.44;;;25.62;29.34
77737;BME280;66903;59.926;30.404;2023-04-01T04:16:58;100319.16;;;25.32;28.92
77737;BME280;66903;59.926;30.404;2023-04-01T04:21:58;100316.63;;;25.08;29.29
77737;BME280;66903;59.926;30.404;2023-04-01T04:27:01;100320.81;;;24.88;29.34
77737;BME280;66903;59.926;30.404;2023-04-01T04:32:02;100319.66;;;24.76;28.96
77737;BME280;66903;59.926;30.404;2023-04-01T04:37:03;100318.38;;;24.68;29.40
77737;BME280;66903;59.926;30.404;2023-04-01T04:42:03;100308.03;;;24.59;28.97
77737;BME280;66903;59.926;30.404;2023-04-01T04:47:04;100323.88;;;24.51;29.05
77737;BME280;66903;59.926;30.404;2023-04-01T04:52:05;100327.72;;;24.47;29.12
77737;BME280;66903;59.926;30.404;2023-04-01T04:57:05;100332.34;;;24.43;29.07
77737;BME280;66903;59.926;30.404;2023-04-01T05:02:06;100331.81;;;24.41;29.31
77737;BME280;66903;59.926;30.404;2023-04-01T05:07:06;100332.69;;;24.41;29.19
77737;BME280;66903;59.926;30.404;2023-04-01T05:12:07;100334.47;;;24.37;29.31
77737;BME280;66903;59.926;30.404;2023-04-01T05:17:11;100338.50;;;24.36;29.10
77737;BME280;66903;59.926;30.404;2023-04-01T05:22:12;100337.13;;;24.34;28.89
77737;BME280;66903;59.926;30.404;2023-04-01T05:27:13;100337.75;;;24.31;29.09
77737;BME280;66903;59.926;30.404;2023-04-01T05:32:13;100337.75;;;24.17;28.95
77737;BME280;66903;59.926;30.404;2023-04-01T05:37:14;100343.47;;;24.17;28.82
77737;BME280;66903;59.926;30.404;2023-04-01T05:42:14;100342.19;;;24.09;28.75
77737;BME280;66903;59.926;30.404;2023-04-01T05:47:15;100336.34;;;24.01;28.72
77737;BME280;66903;59.926;30.404;2023-04-01T05:52:16;100343.91;;;23.92;28.95
77737;BME280;66903;59.926;30.404;2023-04-01T05:57:16;100342.84;;;23.88;29.15
77737;BME280;66903;59.926;30.404;2023-04-01T06:02:17;100346.59;;;24.02;28.82
77737;BME280;66903;59.926;30.404;2023-04-01T06:07:18;100348.53;;;24.20;28.87
77737;BME280;66903;59.926;30.404;2023-04-01T06:33:35;100360.31;;;24.73;28.72
77737;BME280;66903;59.926;30.404;2023-04-01T06:54:38;100374.78;;;24.90;28.46
77737;BME280;66903;59.926;30.404;2023-04-01T06:59:40;100369.03;;;25.03;28.53
77737;BME280;66903;59.926;30.404;2023-04-01T07:04:44;100373.09;;;24.75;28.50
77737;BME280;66903;59.926;30.404;2023-04-01T07:09:52;100379.84;;;24.79;28.77
77737;BME280;66903;59.926;30.404;2023-04-01T07:14:54;100386.41;;;24.93;28.26
77737;BME280;66903;59.926;30.404;2023-04-01T07:20:11;100386.56;;;25.10;28.58
77737;BME280;66903;59.926;30.404;2023-04-01T07:25:16;100383.50;;;25.21;28.20
77737;BME280;66903;59.926;30.404;2023-04-01T07:30:20;100398.22;;;25.28;28.37
77737;BME280;66903;59.926;30.404;2023-04-01T07:35:30;100398.59;;;25.35;28.20
77737;BME280;66903;59.926;30.404;2023-04-01T07:41:08;100403.38;;;25.39;28.29
77737;BME280;66903;59.926;30.404;2023-04-01T08:07:18;100430.25;;;25.52;28.30
77737;BME280;66903;59.926;30.404;2023-04-01T08:12:31;100437.34;;;25.54;28.47
77737;BME280;66903;59.926;30.404;2023-04-01T08:17:58;100429.97;;;25.40;28.19
77737;BME280;66903;59.926;30.404;2023-04-01T08:38:44;100443.78;;;24.70;28.75
77737;BME280;66903;59.926;30.404;2023-04-01T08:54:47;100452.50;;;24.60;29.09
77737;BME280;66903;59.926;30.404;2023-04-01T09:10:46;100466.44;;;24.48;28.79
77737;BME280;66903;59.926;30.404;2023-04-01T09:16:00;100469.19;;;24.71;28.77
77737;BME280;66903;59.926;30.404;2023-04-01T09:48:06;100476.38;;;25.37;28.29
77737;BME280;66903;59.926;30.404;2023-04-01T09:53:46;100480.16;;;25.46;28.32
77737;BME280;66903;59.926;30.404;2023-04-01T09:59:01;100477.50;;;25.49;27.97
77737;BME280;66903;59.926;30.404;2023-04-01T10:09:42;100496.44;;;25.59;28.07
77737;BME280;66903;59.926;30.404;2023-04-01T10:20:05;100502.97;;;25.73;28.15
77737;BME280;66903;59.926;30.404;2023-04-01T11:44:29;100552.47;;;24.92;28.13
77737;BME280;66903;59.926;30.404;2023-04-01T11:50:37;100558.06;;;24.83;28.12
77737;BME280;66903;59.926;30.404;2023-04-01T11:55:08;100549.97;;;24.72;28.67
77737;BME280;66903;59.926;30.404;2023-04-01T12:00:43;100566.50;;;24.75;28.52
77737;BME280;66903;59.926;30.404;2023-04-01T12:27:14;100583.03;;;24.78;28.09
77737;BME280;66903;59.926;30.404;2023-04-01T13:04:17;100606.75;;;25.65;27.18
77737;BME280;66903;59.926;30.404;2023-04-01T13:26:05;100631.41;;;25.74;27.46
77737;BME280;66903;59.926;30.404;2023-04-01T13:31:22;100641.28;;;25.68;26.96
77737;BME280;66903;59.926;30.404;2023-04-01T13:42:25;100645.00;;;25.09;27.10
77737;BME280;66903;59.926;30.404;2023-04-01T14:09:21;100674.00;;;24.71;27.52
77737;BME280;66903;59.926;30.404;2023-04-01T14:19:36;100675.59;;;24.58;27.74
77737;BME280;66903;59.926;30.404;2023-04-01T14:30:53;100677.53;;;24.63;27.46
77737;BME280;66903;59.926;30.404;2023-04-01T14:47:42;100704.78;;;24.55;27.26
77737;BME280;66903;59.926;30.404;2023-04-01T15:03:30;100712.56;;;24.50;27.35
77737;BME280;66903;59.926;30.404;2023-04-01T15:14:06;100721.47;;;24.48;27.59
77737;BME280;66903;59.926;30.404;2023-04-01T15:19:29;100729.72;;;24.50;27.77
77737;BME280;66903;59.926;30.404;2023-04-01T15:25:43;100743.06;;;24.54;27.52
77737;BME280;66903;59.926;30.404;2023-04-01T15:31:07;100769.00;;;24.58;27.37
77737;BME280;66903;59.926;30.404;2023-04-01T15:36:13;100765.63;;;24.56;27.42
77737;BME280;66903;59.926;30.404;2023-04-01T15:41:21;100763.13;;;24.49;27.29
77737;BME280;66903;59.926;30.404;2023-04-01T15:46:31;100772.00;;;24.48;27.25
77737;BME280;66903;59.926;30.404;2023-04-01T15:51:57;100790.63;;;24.45;27.18
77737;BME280;66903;59.926;30.404;2023-04-01T15:57:14;100796.38;;;24.40;27.38
77737;BME280;66903;59.926;30.404;2023-04-01T16:02:23;100797.31;;;24.36;27.33
77737;BME280;66903;59.926;30.404;2023-04-01T16:12:58;100821.00;;;24.36;27.67
77737;BME280;66903;59.926;30.404;2023-04-01T16:23:29;100829.09;;;24.29;27.34
77737;BME280;66903;59.926;30.404;2023-04-01T16:28:53;100831.69;;;24.26;27.41
77737;BME280;66903;59.926;30.404;2023-04-01T16:39:50;100840.34;;;24.21;27.30
77737;BME280;66903;59.926;30.404;2023-04-01T17:00:52;100867.53;;;24.13;27.00
77737;BME280;66903;59.926;30.404;2023-04-01T17:11:18;100877.47;;;24.16;26.67
77737;BME280;66903;59.926;30.404;2023-04-01T17:32:40;100903.47;;;24.61;27.67
77737;BME280;66903;59.926;30.404;2023-04-01T17:59:12;100924.00;;;24.16;27.67
77737;BME280;66903;59.926;30.404;2023-04-01T18:15:15;100927.78;;;24.12;28.24
77737;BME280;66903;59.926;30.404;2023-04-01T18:25:38;100935.72;;;24.15;28.17
77737;BME280;66903;59.926;30.404;2023-04-01T18:30:43;100939.75;;;24.14;28.03
77737;BME280;66903;59.926;30.404;2023-04-01T18:36:26;100941.19;;;24.11;28.03
77737;BME280;66903;59.926;30.404;2023-04-01T18:41:22;100934.06;;;24.08;28.34
77737;BME280;66903;59.926;30.404;2023-04-01T18:46:49;100938.94;;;24.08;28.27
77737;BME280;66903;59.926;30.404;2023-04-01T18:51:58;100940.38;;;24.05;29.97
77737;BME280;66903;59.926;30.404;2023-04-01T18:57:14;100952.00;;;24.14;29.85
77737;BME280;66903;59.926;30.404;2023-04-01T19:02:27;100951.09;;;24.19;29.85
77737;BME280;66903;59.926;30.404;2023-04-01T19:07:42;100961.06;;;24.21;29.99
77737;BME280;66903;59.926;30.404;2023-04-01T19:34:22;100981.91;;;24.22;29.20
77737;BME280;66903;59.926;30.404;2023-04-01T19:44:56;100982.19;;;24.20;29.08
77737;BME280;66903;59.926;30.404;2023-04-01T20:01:09;101002.44;;;24.24;29.21
77737;BME280;66903;59.926;30.404;2023-04-01T20:21:45;101030.06;;;24.85;29.38
77737;BME280;66903;59.926;30.404;2023-04-01T20:26:50;101034.47;;;25.01;29.09
77737;BME280;66903;59.926;30.404;2023-04-01T20:37:35;101050.19;;;25.23;28.73
77737;BME280;66903;59.926;30.404;2023-04-01T20:42:45;101050.72;;;25.25;28.99
77737;BME280;66903;59.926;30.404;2023-04-01T20:48:11;101053.47;;;25.35;28.96
77737;BME280;66903;59.926;30.404;2023-04-01T21:25:28;101098.56;;;25.43;28.97
77737;BME280;66903;59.926;30.404;2023-04-01T22:07:27;101121.78;;;25.36;28.54
77737;BME280;66903;59.926;30.404;2023-04-01T22:18:13;101138.06;;;25.41;28.31
77737;BME280;66903;59.926;30.404;2023-04-01T22:23:28;101140.91;;;25.41;28.40
77737;BME280;66903;59.926;30.404;2023-04-01T22:29:11;101148.91;;;25.44;28.54
77737;BME280;66903;59.926;30.404;2023-04-01T22:44:55;101151.22;;;25.42;28.51
77737;BME280;66903;59.926;30.404;2023-04-01T22:50:10;101156.63;;;25.43;28.68
77737;BME280;66903;59.926;30.404;2023-04-01T23:00:24;101166.66;;;25.41;28.50
77737;BME280;66903;59.926;30.404;2023-04-01T23:05:28;101166.97;;;25.39;28.45
77737;BME280;66903;59.926;30.404;2023-04-01T23:15:38;101168.44;;;25.37;28.45
77737;BME280;66903;59.926;30.404;2023-04-01T23:32:24;101193.50;;;25.45;28.87
77737;BME280;66903;59.926;30.404;2023-04-01T23:37:56;101186.91;;;25.44;28.54
77737;BME280;66903;59.926;30.404;2023-04-01T23:43:25;101192.94;;;25.43;28.78
77737;BME280;66903;59.926;30.404;2023-04-01T23:48:42;101191.25;;;25.42;28.97
77737;BME280;66903;59.926;30.404;2023-04-01T23:54:14;101198.06;;;25.46;28.77
77737;BME280;66903;59.926;30.404;2023-04-01T23:59:35;101195.81;;;25.43;28.54
